Time;durP1;ratioP1;P1;durP2;ratioP2;P2;SDS_P1;SDS_P2;PMS_P1;PMS_P2;Temp;Humidity;BMP_temperature;BMP_pressure;BME280_temperature;BME280_humidity;BME280_pressure;Samples;Min_cycle;Max_cycle;Signal;HPM_P1;HPM_P2
2023/03/09 00:01:23;;;;;;;3.30;2.83;;;7.40;99.90;;;7.13;99.64;95591.28;5093198;28;20475;-71
2023/03/09 00:03:51;;;;;;;3.20;2.90;;;7.40;99.90;;;7.12;99.80;95592.38;5105839;28;20543;-72
2023/03/09 00:06:20;;;;;;;3.10;2.90;;;7.40;99.90;;;7.29;98.78;95595.75;5119504;27;20478;-72
2023/03/09 00:08:48;;;;;;;2.90;2.50;;;7.40;99.90;;;7.32;99.16;95589.06;5111044;27;20450;-72
2023/03/09 00:11:17;;;;;;;3.23;2.93;;;7.40;99.90;;;7.27;99.41;95586.31;5110936;27;21111;-71
2023/03/09 00:13:45;;;;;;;3.37;3.07;;;7.50;99.90;;;7.29;99.36;95598.44;5089261;28;20448;-73
2023/03/09 00:16:15;;;;;;;2.70;2.50;;;7.50;99.90;;;7.28;99.49;95591.44;5085048;28;20449;-72
2023/03/09 00:18:43;;;;;;;3.10;2.90;;;7.50;99.90;;;7.31;99.24;95596.31;5117699;27;20546;-71
2023/03/09 00:21:14;;;;;;;3.70;3.40;;;7.50;99.90;;;7.37;99.43;95581.06;5097723;28;20481;-72
2023/03/09 00:23:44;;;;;;;3.43;3.07;;;7.50;99.90;;;7.46;99.14;95592.16;5084095;28;20818;-73
2023/03/09 00:26:11;;;;;;;3.80;3.50;;;7.60;99.90;;;7.43;99.16;95572.00;5091613;28;20869;-72
2023/03/09 00:28:40;;;;;;;5.00;3.60;;;7.60;99.90;;;7.51;99.19;95579.56;5092580;28;20457;-72
2023/03/09 00:31:08;;;;;;;4.03;3.63;;;7.70;99.90;;;7.48;99.68;95563.16;5079067;28;20793;-72
2023/03/09 00:33:35;;;;;;;3.70;3.40;;;7.70;99.90;;;7.41;100.00;95538.38;5088344;28;20449;-71
2023/03/09 00:36:03;;;;;;;3.40;3.13;;;7.70;99.90;;;7.56;100.00;95559.19;5100800;28;20450;-73
2023/03/09 00:38:30;;;;;;;2.87;2.67;;;7.80;99.90;;;7.64;99.51;95548.75;5094304;28;20458;-70
2023/03/09 00:40:58;;;;;;;3.63;3.33;;;7.80;99.90;;;7.71;99.34;95534.31;5088378;28;20497;-72
2023/03/09 00:43:25;;;;;;;3.47;3.17;;;7.90;99.90;;;7.43;100.00;95475.28;5098232;28;20924;-73
2023/03/09 00:45:53;;;;;;;4.30;3.70;;;7.90;99.90;;;7.71;100.00;95523.56;5097496;27;20533;-72
2023/03/09 00:48:20;;;;;;;3.80;3.20;;;7.90;99.90;;;7.69;100.00;95520.31;5085094;28;20451;-72
2023/03/09 00:50:47;;;;;;;4.20;2.93;;;8.00;99.90;;;7.81;100.00;95518.25;5081286;28;20447;-73
2023/03/09 00:53:14;;;;;;;5.17;3.57;;;8.00;99.90;;;7.76;100.00;95510.97;5082451;28;20496;-72
2023/03/09 00:55:42;;;;;;;2.97;2.77;;;8.00;99.90;;;7.60;100.00;95499.28;5085017;28;21165;-73
2023/03/09 00:58:10;;;;;;;5.50;3.50;;;8.00;99.90;;;7.63;100.00;95488.03;5091663;28;20454;-72
2023/03/09 01:00:39;;;;;;;3.10;2.80;;;8.00;99.90;;;7.80;100.00;95503.19;5088518;28;20478;-73
2023/03/09 01:03:06;;;;;;;3.60;3.30;;;8.00;99.90;;;7.85;100.00;95516.66;5097003;28;20536;-73
2023/03/09 01:05:33;;;;;;;4.37;3.60;;;8.00;99.90;;;7.70;100.00;95478.94;5081740;28;20966;-73
2023/03/09 01:08:00;;;;;;;3.10;2.80;;;8.00;99.90;;;7.85;100.00;95508.59;5088539;28;20537;-73
2023/03/09 01:10:27;;;;;;;3.67;3.37;;;8.00;99.90;;;7.83;100.00;95509.91;5105579;28;20512;-74
2023/03/09 01:12:54;;;;;;;4.87;4.20;;;8.00;99.90;;;7.48;100.00;95450.31;5089686;28;20447;-73
2023/03/09 01:15:23;;;;;;;6.33;3.70;;;8.00;99.90;;;7.88;100.00;95481.19;5080873;28;20454;-73
2023/03/09 01:17:51;;;;;;;4.33;3.00;;;8.10;99.90;;;7.90;100.00;95484.44;5130304;27;20530;-75
2023/03/09 01:20:18;;;;;;;3.40;3.10;;;8.10;99.90;;;7.98;100.00;95485.03;5107661;28;20494;-74
2023/03/09 01:22:45;;;;;;;3.90;3.03;;;8.10;99.90;;;8.21;99.99;95478.41;5091960;28;20985;-76
2023/03/09 01:25:13;;;;;;;3.10;2.80;;;8.20;99.90;;;8.03;100.00;95463.53;5074703;28;20452;-74
2023/03/09 01:27:40;;;;;;;4.67;3.30;;;8.20;99.90;;;8.05;99.88;95470.28;5110118;27;20498;-74
2023/03/09 01:30:10;;;;;;;3.53;2.90;;;8.20;99.90;;;8.21;100.00;95476.50;5099760;28;20449;-75
2023/03/09 01:32:39;;;;;;;6.33;3.40;;;8.30;99.90;;;8.19;99.31;95492.09;5094208;28;20843;-73
2023/03/09 01:35:07;;;;;;;4.50;3.40;;;8.30;99.90;;;8.02;100.00;95476.16;5097693;28;20452;-73
2023/03/09 01:37:38;;;;;;;3.70;3.40;;;8.30;99.90;;;8.14;100.00;95502.84;5083512;28;20456;-74
2023/03/09 01:40:07;;;;;;;5.13;3.40;;;8.20;99.90;;;8.13;100.00;95509.31;5085343;28;21041;-74
2023/03/09 01:42:35;;;;;;;5.70;3.57;;;8.30;99.90;;;8.14;100.00;95489.41;5090335;28;20453;-73
2023/03/09 01:45:46;;;;;;;3.83;3.53;;;8.30;99.90;;;8.06;100.00;95503.34;5080740;28;20449;-73
2023/03/09 01:48:15;;;;;;;6.83;3.60;;;8.20;99.90;;;8.15;100.00;95504.47;5082119;28;20451;-74
2023/03/09 01:50:43;;;;;;;3.70;3.40;;;8.20;99.90;;;8.14;100.00;95493.97;5098820;28;20831;-74
2023/03/09 01:53:15;;;;;;;4.23;3.83;;;8.30;99.90;;;8.27;100.00;95503.44;5088398;28;20919;-73
2023/03/09 01:55:48;;;;;;;3.10;2.20;;;8.30;99.90;;;8.13;100.00;95514.69;5094199;27;20449;-74
2023/03/09 01:58:21;;;;;;;1.80;1.70;;;8.30;99.90;;;8.30;99.77;95495.66;5099410;28;20924;-73
2023/03/09 02:00:51;;;;;;;3.00;1.10;;;8.40;99.90;;;8.27;99.15;95455.81;5113060;27;20474;-74
2023/03/09 02:03:24;;;;;;;1.13;0.97;;;8.50;99.90;;;8.36;98.13;95448.03;5080841;28;20455;-75
2023/03/09 02:05:58;;;;;;;0.90;0.80;;;8.50;99.90;;;8.27;97.70;95430.81;5084484;28;20795;-72
2023/03/09 02:08:28;;;;;;;1.00;0.90;;;8.60;99.90;;;8.44;96.65;95455.63;5080119;28;21026;-75
2023/03/09 02:10:58;;;;;;;1.03;0.90;;;8.60;99.90;;;8.47;95.22;95449.72;5072724;28;20454;-74
2023/03/09 02:13:30;;;;;;;1.27;0.60;;;8.70;99.90;;;8.56;93.80;95438.44;5085876;28;20450;-74
2023/03/09 02:15:57;;;;;;;0.50;0.40;;;8.70;99.90;;;8.48;93.64;95447.81;5082034;28;20454;-73
2023/03/09 02:18:27;;;;;;;1.80;0.80;;;8.70;99.90;;;8.61;93.52;95454.63;5086141;28;20447;-74
2023/03/09 02:21:04;;;;;;;1.90;0.90;;;8.70;99.90;;;8.66;92.71;95461.91;5098569;28;20470;-72
2023/03/09 02:23:42;;;;;;;0.80;0.60;;;8.70;99.90;;;8.61;92.59;95457.31;5107329;28;20455;-74
2023/03/09 02:26:20;;;;;;;1.87;1.10;;;8.70;99.90;;;8.69;92.06;95474.81;5091120;28;20446;-74
2023/03/09 02:28:49;;;;;;;0.80;0.70;;;8.70;99.90;;;8.67;91.29;95456.22;5086378;28;20451;-73
2023/03/09 02:31:17;;;;;;;1.27;0.70;;;8.70;99.90;;;8.49;91.49;95439.47;5103275;28;20439;-72
2023/03/09 02:33:44;;;;;;;4.20;1.10;;;8.70;99.90;;;8.63;91.49;95452.47;5111559;27;20451;-72
2023/03/09 02:36:12;;;;;;;0.90;0.50;;;8.70;99.90;;;8.61;91.36;95452.72;5086115;28;20799;-73
2023/03/09 02:38:39;;;;;;;1.27;0.40;;;8.70;99.90;;;8.46;91.63;95437.31;5103370;28;20458;-73
2023/03/09 02:41:11;;;;;;;1.97;0.50;;;8.70;99.90;;;8.64;90.98;95468.38;5103225;28;21047;-71
2023/03/09 02:43:45;;;;;;;0.60;0.50;;;8.70;99.90;;;8.56;91.56;95468.03;5112566;27;20449;-73
2023/03/09 02:46:14;;;;;;;0.50;0.50;;;8.70;99.90;;;8.62;90.60;95458.94;5091825;28;20457;-73
2023/03/09 02:48:41;;;;;;;0.60;0.50;;;8.70;99.90;;;8.63;90.87;95474.78;5094323;28;20454;-74
2023/03/09 02:51:09;;;;;;;2.00;0.93;;;8.70;99.90;;;8.41;92.05;95456.13;5119083;27;20458;-72
2023/03/09 02:53:37;;;;;;;0.83;0.53;;;8.70;99.90;;;8.60;91.79;95479.91;5102638;28;20497;-72
2023/03/09 02:56:06;;;;;;;0.90;0.60;;;8.70;99.90;;;8.57;92.07;95478.56;5086734;28;20930;-74
2023/03/09 02:58:33;;;;;;;0.60;0.60;;;8.70;99.90;;;8.36;92.99;95465.00;5099016;28;20874;-74
2023/03/09 03:01:00;;;;;;;0.80;0.60;;;8.70;99.90;;;8.40;93.34;95464.47;5101346;27;20577;-74
2023/03/09 03:03:29;;;;;;;0.90;0.40;;;8.70;99.90;;;8.57;93.19;95492.00;5098733;27;20533;-74
2023/03/09 03:05:56;;;;;;;0.90;0.50;;;8.70;99.90;;;8.60;93.41;95486.09;5102699;28;20515;-75
2023/03/09 03:08:24;;;;;;;1.37;0.70;;;8.70;99.90;;;8.49;93.75;95495.16;5079995;28;20468;-75
2023/03/09 03:10:51;;;;;;;1.43;0.93;;;8.70;99.90;;;8.56;93.49;95487.69;5109156;27;20464;-74
2023/03/09 03:13:18;;;;;;;0.70;0.60;;;8.70;99.90;;;8.42;93.69;95451.56;5082075;28;20454;-71
2023/03/09 03:15:46;;;;;;;0.80;0.60;;;8.70;99.90;;;8.62;93.93;95481.25;5078645;28;20464;-73
2023/03/09 03:18:13;;;;;;;1.57;1.07;;;8.70;99.90;;;8.72;93.52;95488.56;5123166;27;20456;-73
2023/03/09 03:20:41;;;;;;;0.60;0.60;;;8.70;99.90;;;8.74;93.45;95488.28;5088801;28;20469;-75
2023/03/09 03:23:09;;;;;;;0.90;0.70;;;8.70;99.90;;;8.53;94.25;95474.78;5103852;28;20461;-76
2023/03/09 03:25:36;;;;;;;1.13;0.77;;;8.70;99.90;;;8.61;94.31;95490.41;5099643;28;20489;-82
2023/03/09 03:28:04;;;;;;;1.30;0.67;;;8.70;99.90;;;8.74;94.17;95494.50;5103586;28;20450;-77
2023/03/09 03:30:31;;;;;;;1.33;0.87;;;8.70;99.90;;;8.71;93.69;95491.50;5088536;28;20457;-74
2023/03/09 03:32:58;;;;;;;2.60;0.73;;;8.70;99.90;;;8.67;93.90;95506.59;5104557;28;20523;-78
2023/03/09 03:35:26;;;;;;;0.93;0.60;;;8.70;99.90;;;8.65;93.72;95493.38;5086774;28;20452;-75
2023/03/09 03:37:54;;;;;;;0.70;0.67;;;8.80;99.90;;;8.65;92.94;95488.00;5098004;28;20883;-76
2023/03/09 03:40:22;;;;;;;2.13;1.07;;;8.80;99.90;;;8.69;93.37;95501.75;5109061;28;20463;-70
2023/03/09 03:42:50;;;;;;;2.30;0.87;;;8.90;99.90;;;8.67;93.03;95499.31;5124843;28;20514;-73
2023/03/09 03:45:18;;;;;;;0.83;0.60;;;8.90;99.90;;;8.82;92.70;95497.72;5127320;27;20439;-72
2023/03/09 03:47:45;;;;;;;2.20;0.60;;;8.90;99.90;;;8.79;92.89;95504.44;5101749;28;20454;-72
2023/03/09 03:50:12;;;;;;;1.03;0.70;;;9.00;99.90;;;8.84;93.46;95511.72;5104780;28;20459;-72
2023/03/09 03:52:40;;;;;;;1.37;0.70;;;9.00;99.90;;;8.84;93.32;95496.41;5107410;28;20465;-72
2023/03/09 03:55:09;;;;;;;1.77;1.00;;;9.00;99.90;;;8.86;94.11;95506.88;5102541;28;20463;-73
2023/03/09 03:57:36;;;;;;;1.90;0.70;;;9.00;99.90;;;8.73;94.18;95497.44;5115203;28;20492;-73
2023/03/09 04:00:09;;;;;;;0.73;0.70;;;9.00;99.90;;;8.75;94.82;95520.34;5097597;28;20484;-73
2023/03/09 04:02:36;;;;;;;1.30;1.10;;;8.90;99.90;;;8.84;94.39;95517.09;5131535;27;20483;-70
2023/03/09 04:05:04;;;;;;;0.93;0.83;;;8.90;99.90;;;8.82;95.13;95522.78;5097258;28;20462;-73
2023/03/09 04:07:31;;;;;;;2.70;0.83;;;8.90;99.90;;;8.74;95.67;95524.09;5122077;27;20442;-74
2023/03/09 04:09:58;;;;;;;0.80;0.80;;;8.90;99.90;;;8.70;96.23;95528.38;5113456;28;20516;-73
2023/03/09 04:12:27;;;;;;;3.03;1.20;;;8.90;99.90;;;8.66;96.14;95538.06;5100696;27;20692;-75
2023/03/09 04:14:54;;;;;;;2.37;1.10;;;8.90;99.90;;;8.70;96.27;95544.53;5088687;28;20764;-74
2023/03/09 04:17:21;;;;;;;0.93;0.60;;;8.90;99.90;;;8.78;96.67;95546.72;5089634;28;20458;-74
2023/03/09 04:19:49;;;;;;;1.80;1.07;;;8.90;99.90;;;8.76;95.91;95554.25;5095830;28;20460;-73
2023/03/09 04:22:16;;;;;;;1.43;1.10;;;8.90;99.90;;;8.75;96.88;95562.59;5106925;27;20458;-75
2023/03/09 04:24:43;;;;;;;1.70;0.90;;;8.80;99.90;;;8.80;96.39;95562.63;5083579;28;21079;-74
2023/03/09 04:27:11;;;;;;;1.83;1.17;;;8.90;99.90;;;8.72;96.56;95563.94;5088168;28;20509;-74
2023/03/09 04:29:39;;;;;;;1.80;1.47;;;8.80;99.90;;;8.71;97.19;95573.06;5078402;28;20460;-76
2023/03/09 04:32:07;;;;;;;2.20;1.10;;;8.80;99.90;;;8.69;96.78;95577.91;5078876;28;20463;-75
2023/03/09 04:34:34;;;;;;;2.10;1.13;;;8.80;99.90;;;8.72;96.60;95596.25;5093871;28;20461;-73
2023/03/09 04:37:02;;;;;;;4.90;1.27;;;8.80;99.90;;;8.70;95.94;95592.19;5088433;28;20481;-76
2023/03/09 04:39:29;;;;;;;1.97;1.00;;;8.80;99.90;;;8.68;97.04;95618.56;5091288;28;20475;-77
2023/03/09 04:41:56;;;;;;;1.90;0.80;;;8.80;99.90;;;8.67;97.06;95620.44;5090679;28;20529;-78
2023/03/09 04:44:23;;;;;;;1.23;0.80;;;8.80;99.90;;;8.50;97.48;95602.59;5105240;28;20572;-77
2023/03/09 04:46:52;;;;;;;1.60;0.70;;;8.70;99.90;;;8.57;97.18;95631.97;5098530;28;20507;-77
2023/03/09 04:49:19;;;;;;;2.63;0.90;;;8.70;99.90;;;8.38;97.90;95636.13;5107194;28;20880;-78
2023/03/09 04:51:46;;;;;;;3.47;1.10;;;8.70;99.90;;;8.47;98.86;95637.25;5123331;27;20935;-76
2023/03/09 04:54:14;;;;;;;0.97;0.63;;;8.70;99.90;;;8.28;96.89;95659.19;5094291;28;20447;-76
2023/03/09 04:56:43;;;;;;;1.47;0.60;;;8.60;99.90;;;8.14;95.96;95653.47;5090900;28;20474;-75
2023/03/09 04:59:10;;;;;;;0.70;0.60;;;8.50;99.90;;;8.12;94.52;95655.59;5090996;28;20451;-74
2023/03/09 05:01:37;;;;;;;1.70;0.70;;;8.50;99.90;;;7.94;95.11;95640.66;5093761;28;20491;-75
2023/03/09 05:04:06;;;;;;;0.57;0.57;;;8.40;99.90;;;8.03;95.29;95686.72;5096632;28;20475;-73
2023/03/09 05:06:33;;;;;;;0.50;0.50;;;8.40;99.90;;;8.00;94.86;95684.56;5110859;27;20528;-75
2023/03/09 05:09:02;;;;;;;0.87;0.70;;;8.30;99.90;;;7.97;94.19;95682.38;5090006;28;20454;-72
2023/03/09 05:11:30;;;;;;;3.13;0.50;;;8.30;99.90;;;7.88;94.40;95671.25;5091254;28;20454;-74
2023/03/09 05:13:57;;;;;;;0.80;0.50;;;8.30;99.90;;;7.92;94.62;95686.63;5087351;28;20542;-73
2023/03/09 05:16:24;;;;;;;1.17;0.47;;;8.20;99.90;;;7.94;93.92;95705.19;5100569;27;20461;-75
2023/03/09 05:18:52;;;;;;;0.40;0.40;;;8.20;99.90;;;7.95;92.09;95698.75;5097459;28;20451;-74
2023/03/09 05:21:20;;;;;;;1.23;0.80;;;8.20;99.90;;;7.94;92.35;95713.28;5087329;28;20910;-78
2023/03/09 05:23:48;;;;;;;0.90;0.53;;;8.20;99.90;;;7.22;91.85;95611.28;5097879;28;20858;-77
2023/03/09 05:26:15;;;;;;;0.90;0.70;;;8.20;99.90;;;7.81;91.90;95717.19;5087910;28;20969;-77
2023/03/09 05:28:42;;;;;;;0.40;0.30;;;8.20;99.90;;;7.73;92.15;95698.81;5085427;28;20969;-73
2023/03/09 05:31:13;;;;;;;0.80;0.40;;;8.20;99.90;;;7.95;91.43;95744.47;5086488;28;20467;-78
2023/03/09 05:33:40;;;;;;;1.30;0.63;;;8.20;99.90;;;8.05;91.44;95751.81;5078280;28;20750;-80
2023/03/09 05:36:17;;;;;;;1.20;0.57;;;8.20;99.90;;;8.05;91.20;95766.09;5109139;27;20453;-74
2023/03/09 05:38:45;;;;;;;2.13;0.47;;;8.20;99.90;;;8.03;91.35;95772.78;5078417;28;20478;-68
2023/03/09 05:41:13;;;;;;;0.50;0.40;;;8.30;99.90;;;8.11;91.04;95775.00;5082434;28;20494;-66
2023/03/09 05:43:42;;;;;;;0.70;0.60;;;8.40;99.90;;;8.08;90.80;95775.50;5081473;28;20452;-68
2023/03/09 05:46:10;;;;;;;1.20;0.70;;;8.40;99.90;;;8.19;90.10;95804.13;5098190;27;20461;-68
2023/03/09 05:48:38;;;;;;;1.40;0.70;;;8.40;99.90;;;8.21;91.09;95811.97;5103972;27;20450;-67
2023/03/09 05:51:07;;;;;;;0.70;0.60;;;8.40;99.90;;;8.20;90.59;95811.13;5109022;27;20467;-68
2023/03/09 05:53:35;;;;;;;1.67;0.73;;;8.40;99.90;;;8.32;89.66;95832.50;5082493;28;20558;-70
2023/03/09 05:56:05;;;;;;;0.87;0.77;;;8.50;99.90;;;8.33;89.89;95825.25;5074808;28;20485;-68
2023/03/09 05:58:33;;;;;;;2.40;0.70;;;8.50;99.90;;;8.31;89.48;95827.38;5086496;28;20573;-68
2023/03/09 06:01:01;;;;;;;0.70;0.70;;;8.50;99.90;;;8.26;89.51;95832.69;5080360;28;20459;-73
2023/03/09 06:03:28;;;;;;;1.03;0.70;;;8.60;99.90;;;8.35;88.94;95842.78;5075617;28;21306;-69
2023/03/09 06:06:00;;;;;;;1.07;0.77;;;8.60;99.90;;;8.40;89.19;95851.94;5084980;28;20492;-70
2023/03/09 06:08:28;;;;;;;0.80;0.80;;;8.60;99.90;;;8.26;89.50;95863.13;5082252;28;21042;-66
2023/03/09 06:10:59;;;;;;;2.20;0.70;;;8.60;99.90;;;8.27;90.61;95875.50;5095022;28;20558;-70
2023/03/09 06:13:28;;;;;;;1.30;0.90;;;8.50;99.90;;;8.35;90.87;95866.16;5101004;28;20446;-68
2023/03/09 06:15:55;;;;;;;1.00;0.70;;;8.50;99.90;;;8.25;90.76;95864.19;5132231;27;20467;-69
2023/03/09 06:18:23;;;;;;;2.03;0.87;;;8.50;99.90;;;8.30;91.13;95863.44;5101998;28;20814;-70
2023/03/09 06:20:50;;;;;;;1.37;1.27;;;8.50;99.90;;;8.30;90.49;95879.56;5125614;27;20468;-70
2023/03/09 06:23:18;;;;;;;1.20;0.90;;;8.50;99.90;;;8.26;90.59;95894.56;5080707;28;20467;-69
2023/03/09 06:25:45;;;;;;;1.47;0.90;;;8.50;99.90;;;8.29;90.53;95892.19;5086766;28;20550;-70
2023/03/09 06:28:12;;;;;;;1.03;0.80;;;8.50;99.90;;;8.32;90.47;95893.56;5090726;28;20448;-68
2023/03/09 06:30:41;;;;;;;1.80;1.03;;;8.60;99.90;;;8.36;90.06;95889.31;5097656;27;20506;-68
2023/03/09 06:33:08;;;;;;;2.10;2.00;;;8.60;99.90;;;8.47;90.50;95885.66;5078449;28;20437;-69
2023/03/09 06:35:36;;;;;;;2.10;1.50;;;8.60;99.90;;;8.50;89.06;95906.72;5070716;28;20549;-68
2023/03/09 06:38:03;;;;;;;1.33;1.23;;;8.70;99.90;;;8.54;88.99;95922.34;5085526;27;20469;-69
2023/03/09 06:40:31;;;;;;;2.10;1.20;;;8.70;99.90;;;8.48;89.26;95924.97;5084850;28;20544;-68
2023/03/09 06:42:58;;;;;;;2.63;1.60;;;8.70;99.90;;;8.60;89.30;95937.50;5094405;27;20539;-69
2023/03/09 06:45:26;;;;;;;1.67;1.30;;;8.70;99.90;;;8.61;88.80;95944.50;5084632;28;20946;-69
2023/03/09 06:47:56;;;;;;;1.67;1.57;;;8.80;99.90;;;8.18;88.29;95880.53;5090728;28;20780;-68
2023/03/09 06:50:26;;;;;;;2.20;2.00;;;8.80;99.90;;;8.69;88.22;95956.69;5115574;27;20478;-69
2023/03/09 06:52:53;;;;;;;4.20;2.20;;;8.90;99.90;;;8.79;88.68;95968.38;5099083;27;20459;-69
2023/03/09 06:55:20;;;;;;;2.73;2.50;;;8.90;99.90;;;8.68;88.26;95961.25;5088657;28;20458;-69
2023/03/09 06:57:48;;;;;;;4.40;2.00;;;8.90;99.90;;;8.79;86.81;95979.16;5076307;28;20458;-70
2023/03/09 07:00:17;;;;;;;2.20;1.80;;;9.00;99.90;;;8.79;86.40;95999.84;5090940;28;20783;-69
2023/03/09 07:02:44;;;;;;;2.00;1.80;;;9.00;98.70;;;8.93;85.80;95994.91;5083805;28;20590;-72
2023/03/09 07:05:12;;;;;;;3.17;1.83;;;9.10;98.00;;;9.03;84.97;95999.56;5075925;28;20964;-71
2023/03/09 07:07:42;;;;;;;1.93;1.70;;;9.20;96.80;;;8.98;84.55;95996.84;5075419;28;20454;-70
2023/03/09 07:10:11;;;;;;;3.20;2.00;;;9.30;95.50;;;9.23;83.21;96008.91;5120907;27;20810;-69
2023/03/09 07:12:38;;;;;;;2.20;1.90;;;9.40;95.80;;;9.27;82.77;96016.22;5083947;28;20470;-70
2023/03/09 07:15:09;;;;;;;1.80;1.70;;;9.50;94.50;;;9.43;82.87;96035.22;5090356;28;20475;-70
2023/03/09 07:17:36;;;;;;;3.03;2.67;;;9.60;94.70;;;9.21;83.42;96046.88;5077559;28;21143;-70
2023/03/09 07:20:04;;;;;;;2.60;2.07;;;9.50;94.60;;;9.13;83.19;96052.72;5072275;28;20797;-70
2023/03/09 07:22:33;;;;;;;4.13;2.13;;;9.40;94.50;;;8.99;82.96;96049.63;5099134;27;20475;-70
2023/03/09 07:25:00;;;;;;;2.83;2.10;;;9.30;94.10;;;8.78;83.85;96046.69;5087312;28;20881;-70
2023/03/09 07:27:28;;;;;;;2.27;1.47;;;9.20;94.80;;;8.76;82.99;96038.06;5084858;28;20458;-69
2023/03/09 07:29:55;;;;;;;1.80;1.60;;;9.30;94.00;;;9.03;82.49;96080.38;5084190;28;20492;-70
2023/03/09 07:32:22;;;;;;;2.73;1.70;;;9.30;93.50;;;9.12;81.41;96075.34;5074959;28;20826;-69
2023/03/09 07:34:49;;;;;;;5.40;3.07;;;9.40;92.90;;;9.25;80.88;96087.59;5095245;27;20441;-70
2023/03/09 07:37:16;;;;;;;2.67;1.80;;;9.50;92.70;;;9.29;79.99;96092.22;5068399;28;20461;-69
2023/03/09 07:39:45;;;;;;;5.13;2.13;;;9.60;92.10;;;9.42;79.03;96098.28;5085987;28;20451;-69
2023/03/09 07:42:12;;;;;;;3.13;1.63;;;9.60;91.50;;;9.30;79.31;96096.53;5082025;28;20468;-70
2023/03/09 07:44:39;;;;;;;2.17;1.70;;;9.60;91.50;;;9.32;78.73;96105.19;5084179;28;20560;-69
2023/03/09 07:47:07;;;;;;;4.77;2.53;;;9.60;91.10;;;9.53;78.98;96115.34;5077714;28;20486;-70
2023/03/09 07:49:34;;;;;;;4.10;2.37;;;9.70;91.60;;;9.68;78.16;96128.19;5101661;27;20451;-69
2023/03/09 07:52:02;;;;;;;9.00;2.30;;;9.70;91.40;;;9.52;78.19;96127.22;5079585;28;20485;-69
2023/03/09 07:54:30;;;;;;;4.47;2.00;;;9.70;90.60;;;9.36;77.51;96127.06;5080243;28;20767;-71
2023/03/09 07:56:58;;;;;;;3.80;1.77;;;9.70;90.20;;;9.26;78.10;96117.00;5116792;27;20441;-70
2023/03/09 07:59:26;;;;;;;5.60;1.87;;;9.60;90.40;;;9.24;77.63;96129.09;5084032;28;20454;-71
2023/03/09 08:01:53;;;;;;;6.63;2.17;;;9.60;90.50;;;9.47;76.83;96138.75;5089031;28;20842;-71
2023/03/09 08:04:20;;;;;;;5.20;2.90;;;9.60;90.30;;;9.31;76.62;96100.88;5091764;28;20515;-70
2023/03/09 08:06:47;;;;;;;6.50;1.80;;;9.80;90.20;;;9.69;75.97;96154.06;5089708;28;20499;-70
2023/03/09 08:09:17;;;;;;;6.90;1.80;;;9.90;89.10;;;9.84;75.12;96153.38;5101292;28;20445;-70
2023/03/09 08:11:44;;;;;;;3.20;1.60;;;10.00;87.70;;;9.58;74.72;96118.91;5096250;28;21021;-70
2023/03/09 08:14:13;;;;;;;6.67;2.20;;;10.10;86.70;;;9.89;74.35;96156.16;5098450;27;20532;-71
2023/03/09 08:16:40;;;;;;;3.93;1.90;;;10.10;86.60;;;9.88;74.79;96176.91;5085752;28;20461;-71
2023/03/09 08:19:07;;;;;;;6.53;2.60;;;10.10;86.90;;;9.63;75.51;96137.84;5082915;28;20948;-71
2023/03/09 08:21:34;;;;;;;5.17;1.70;;;10.10;87.50;;;9.77;74.98;96173.31;5089028;28;20520;-72
2023/03/09 08:24:02;;;;;;;2.73;1.50;;;10.00;86.90;;;9.63;75.30;96185.56;5116928;27;20527;-72
2023/03/09 08:26:29;;;;;;;9.13;1.77;;;10.00;86.50;;;9.69;76.61;96187.22;5101557;27;20460;-72
2023/03/09 08:28:56;;;;;;;4.20;1.73;;;10.00;87.60;;;9.52;77.42;96181.97;5078765;28;20569;-74
2023/03/09 08:31:25;;;;;;;4.03;1.43;;;9.80;90.40;;;9.33;78.70;96193.09;5119661;27;20455;-72
2023/03/09 08:33:52;;;;;;;5.27;1.60;;;9.60;91.20;;;9.39;78.95;96195.81;5108320;27;20457;-73
2023/03/09 08:36:21;;;;;;;5.23;1.50;;;9.60;91.80;;;9.24;79.05;96199.97;5076390;28;20483;-71
2023/03/09 08:38:50;;;;;;;4.23;1.80;;;9.40;91.80;;;9.23;80.55;96186.72;5088421;28;20462;-70
2023/03/09 08:41:19;;;;;;;3.17;1.70;;;9.50;92.80;;;9.44;79.57;96212.03;5113226;27;20952;-72
2023/03/09 08:43:46;;;;;;;4.70;1.50;;;9.50;92.40;;;9.50;78.78;96213.75;5121484;27;20467;-73
2023/03/09 08:46:14;;;;;;;8.10;2.20;;;9.70;91.80;;;9.71;78.24;96209.38;5083704;28;20465;-72
2023/03/09 08:48:43;;;;;;;10.77;2.57;;;9.80;91.50;;;9.68;78.42;96209.06;5078581;28;20507;-73
2023/03/09 08:51:11;;;;;;;5.60;2.27;;;9.80;91.50;;;9.61;78.60;96215.47;5092750;28;20462;-73
2023/03/09 08:53:39;;;;;;;4.13;2.00;;;9.80;91.30;;;9.76;78.02;96211.28;5079922;28;20512;-71
2023/03/09 08:56:09;;;;;;;7.23;3.03;;;10.00;90.80;;;9.96;77.65;96221.47;5097736;27;20558;-72
2023/03/09 08:58:37;;;;;;;5.43;2.33;;;10.10;90.60;;;10.04;77.28;96220.19;5079148;28;20457;-70
2023/03/09 09:01:08;;;;;;;3.13;1.90;;;10.20;90.40;;;9.91;77.78;96227.63;5071563;28;20454;-72
2023/03/09 09:03:38;;;;;;;5.47;2.50;;;10.20;90.20;;;9.96;77.37;96239.56;5077674;28;20468;-75
2023/03/09 09:06:10;;;;;;;11.33;2.37;;;10.10;90.50;;;10.00;77.45;96246.88;5077854;28;20480;-69
2023/03/09 09:08:38;;;;;;;7.13;4.20;;;10.10;90.40;;;10.16;76.93;96239.75;5090523;28;20485;-73
2023/03/09 09:11:07;;;;;;;7.00;3.30;;;10.20;90.00;;;10.21;75.86;96236.28;5094684;28;20473;-73
2023/03/09 09:13:35;;;;;;;6.30;2.20;;;10.30;89.00;;;10.07;76.11;96250.19;5094556;27;20467;-70
2023/03/09 09:16:02;;;;;;;3.83;1.60;;;10.40;88.60;;;10.36;74.46;96249.06;5077689;28;20449;-77
2023/03/09 09:18:31;;;;;;;3.47;1.87;;;10.50;87.80;;;9.85;75.19;96184.69;5081100;28;20470;-73
2023/03/09 09:20:58;;;;;;;6.17;2.47;;;10.50;87.60;;;10.29;75.20;96256.59;5076860;28;20443;-76
2023/03/09 09:23:26;;;;;;;4.80;1.97;;;10.50;87.40;;;10.57;73.76;96268.19;5098416;27;20480;-75
2023/03/09 09:25:57;;;;;;;7.13;1.60;;;10.60;86.60;;;10.52;73.13;96270.84;5071938;28;20612;-75
2023/03/09 09:28:25;;;;;;;3.20;1.83;;;10.70;85.70;;;10.42;73.25;96269.69;5121152;27;20932;-75
2023/03/09 09:30:56;;;;;;;5.30;1.53;;;10.60;85.80;;;10.42;73.26;96277.78;5080547;28;20485;-74
2023/03/09 09:33:24;;;;;;;4.93;2.13;;;10.60;85.70;;;10.46;73.31;96272.66;5097710;27;20578;-75
2023/03/09 09:35:59;;;;;;;6.03;2.60;;;10.60;85.50;;;10.88;71.56;96268.41;5086120;28;20559;-69
2023/03/09 09:38:30;;;;;;;3.50;1.50;;;10.80;85.30;;;10.62;72.12;96260.13;5086526;28;20454;-74
2023/03/09 09:41:00;;;;;;;2.30;1.20;;;10.90;84.40;;;10.79;71.55;96275.34;5073659;28;20534;-75
2023/03/09 09:43:30;;;;;;;5.90;1.97;;;11.00;84.10;;;10.80;71.10;96276.97;5075877;28;20558;-73
2023/03/09 09:46:00;;;;;;;2.63;1.03;;;10.90;84.30;;;10.64;71.43;96287.69;5081892;28;21366;-75
2023/03/09 09:48:29;;;;;;;7.00;2.60;;;10.90;84.00;;;10.33;72.38;96285.53;5132605;27;20974;-71
2023/03/09 09:51:11;;;;;;;3.90;1.60;;;10.70;84.40;;;10.53;72.09;96285.97;5114690;27;20469;-74
2023/03/09 09:53:54;;;;;;;4.10;1.40;;;10.70;84.80;;;10.68;72.47;96293.38;5100229;28;20462;-69
2023/03/09 09:56:29;;;;;;;2.83;1.30;;;10.80;84.70;;;10.88;71.52;96296.22;5117858;27;20520;-70
2023/03/09 09:59:02;;;;;;;6.57;2.40;;;11.00;84.40;;;10.68;71.15;96296.88;5124389;27;20628;-77
2023/03/09 10:01:39;;;;;;;4.33;1.33;;;11.00;84.00;;;10.56;71.92;96294.38;5076224;28;20454;-71
2023/03/09 10:04:15;;;;;;;3.97;0.90;;;10.90;84.00;;;10.75;71.32;96305.59;5071118;28;20486;-73
2023/03/09 10:06:45;;;;;;;3.17;1.30;;;10.90;84.00;;;10.80;71.34;96298.59;5078100;28;20543;-75
2023/03/09 10:09:22;;;;;;;1.60;1.20;;;11.00;84.00;;;10.91;70.54;96300.31;5079568;28;20488;-75
2023/03/09 10:11:53;;;;;;;7.87;1.60;;;11.10;83.80;;;10.96;70.96;96303.03;5088825;28;20778;-74
2023/03/09 10:14:28;;;;;;;3.40;1.10;;;11.20;83.60;;;11.04;70.50;96305.25;5087110;28;20467;-73
2023/03/09 10:17:00;;;;;;;4.40;1.40;;;11.20;83.40;;;10.76;71.72;96304.53;5074372;28;20467;-74
2023/03/09 10:19:34;;;;;;;6.47;1.30;;;11.10;83.60;;;10.69;72.20;96314.75;5082476;28;20553;-75
2023/03/09 10:22:04;;;;;;;4.27;1.80;;;10.90;84.00;;;10.92;71.31;96315.44;5104053;27;20934;-74
2023/03/09 10:24:40;;;;;;;6.20;1.60;;;11.00;84.10;;;11.15;71.26;96326.97;5084139;28;21030;-73
2023/03/09 10:27:18;;;;;;;1.87;1.00;;;11.10;84.30;;;10.73;71.93;96320.44;5078483;28;20457;-71
2023/03/09 10:29:53;;;;;;;5.93;1.77;;;11.00;83.80;;;10.80;71.78;96320.22;5095821;28;20448;-73
2023/03/09 10:32:24;;;;;;;5.80;2.23;;;11.00;84.20;;;11.03;70.95;96325.25;5089654;28;20530;-74
2023/03/09 10:34:59;;;;;;;4.67;1.50;;;11.10;84.20;;;10.80;72.29;96325.59;5094840;28;20478;-75
2023/03/09 10:37:34;;;;;;;1.83;0.80;;;11.10;84.60;;;10.75;73.04;96345.28;5086822;28;20448;-75